createdAt,value
2018-01-19T00:00:31.559Z,37.00
2018-01-19T00:01:06.777Z,37.90
2018-01-19T00:01:42.092Z,45.10
2018-01-19T00:02:17.801Z,37.80
2018-01-19T00:02:53.115Z,37.40
2018-01-19T00:03:28.335Z,37.70
2018-01-19T00:04:03.675Z,38.10
2018-01-19T00:04:38.863Z,38.40
2018-01-19T00:05:14.180Z,35.90
2018-01-19T00:05:49.763Z,31.70
2018-01-19T00:06:25.202Z,37.90
2018-01-19T00:07:00.678Z,40.00
2018-01-19T00:07:36.197Z,41.10
2018-01-19T00:08:11.709Z,36.50
2018-01-19T00:08:47.103Z,43.50
2018-01-19T00:09:22.812Z,45.30
2018-01-19T00:09:58.098Z,34.90
2018-01-19T00:10:33.414Z,36.30
2018-01-19T00:11:08.902Z,40.50
2018-01-19T00:11:44.832Z,38.00
2018-01-19T00:12:20.214Z,37.20
2018-01-19T00:12:55.435Z,39.80
2018-01-19T00:13:30.670Z,37.70
2018-01-19T00:14:05.978Z,37.40
2018-01-19T00:14:41.788Z,41.20
2018-01-19T00:15:17.371Z,41.50
2018-01-19T00:15:52.886Z,38.90
2018-01-19T00:16:28.053Z,41.10
2018-01-19T00:17:03.301Z,45.10
2018-01-19T00:17:38.882Z,47.10
2018-01-19T00:18:14.400Z,40.50
2018-01-19T00:18:49.808Z,45.90
2018-01-19T00:19:24.991Z,43.60
2018-01-19T00:20:00.200Z,40.80
2018-01-19T00:20:35.619Z,40.30
2018-01-19T00:21:10.916Z,37.60
2018-01-19T00:21:46.122Z,39.90
2018-01-19T00:22:21.243Z,38.00
2018-01-19T00:22:56.419Z,40.70
2018-01-19T00:23:31.830Z,42.70
2018-01-19T00:24:07.200Z,36.30
2018-01-19T00:24:42.520Z,34.20
2018-01-19T00:25:18.128Z,43.80
2018-01-19T00:25:53.392Z,45.80
2018-01-19T00:26:28.910Z,44.90
2018-01-19T00:27:04.311Z,43.40
2018-01-19T00:27:39.714Z,44.20
2018-01-19T00:28:14.899Z,44.10
2018-01-19T00:28:50.208Z,45.40
2018-01-19T00:29:25.685Z,46.60
2018-01-19T00:30:00.897Z,41.20
2018-01-19T00:30:36.218Z,45.90
2018-01-19T00:31:11.806Z,49.00
2018-01-19T00:31:47.845Z,42.90
2018-01-19T00:32:23.438Z,43.60
2018-01-19T00:32:58.855Z,54.80
2018-01-19T00:33:34.234Z,48.40
2018-01-19T00:34:09.556Z,40.30
2018-01-19T00:34:45.329Z,42.40
2018-01-19T00:35:20.743Z,39.80
2018-01-19T00:35:55.877Z,41.30
2018-01-19T00:36:31.431Z,48.10
2018-01-19T00:37:07.169Z,44.90
2018-01-19T00:37:42.350Z,40.70
2018-01-19T00:38:17.756Z,37.40
2018-01-19T00:38:53.257Z,37.40
2018-01-19T00:39:28.881Z,42.40
2018-01-19T00:40:04.563Z,44.00
2018-01-19T00:40:39.862Z,40.50
2018-01-19T00:41:15.181Z,43.10
2018-01-19T00:41:50.500Z,44.70
2018-01-19T00:42:25.708Z,46.00
2018-01-19T00:43:01.091Z,41.60
2018-01-19T00:43:36.294Z,36.70
2018-01-19T00:44:11.787Z,39.60
2018-01-19T00:44:47.204Z,40.20
2018-01-19T00:45:22.483Z,35.90
2018-01-19T00:45:57.707Z,45.20
2018-01-19T00:46:33.332Z,44.50
2018-01-19T00:47:08.841Z,50.20
2018-01-19T00:47:44.143Z,46.10
2018-01-19T00:48:19.433Z,44.30
2018-01-19T00:48:55.151Z,48.00
2018-01-19T00:49:30.341Z,46.00
2018-01-19T00:50:05.660Z,45.40
2018-01-19T00:50:40.642Z,43.20
2018-01-19T00:51:15.854Z,47.80
2018-01-19T00:51:51.340Z,58.00
2018-01-19T00:52:26.678Z,47.00
2018-01-19T00:53:01.889Z,38.20
2018-01-19T00:53:37.271Z,40.70
2018-01-19T00:54:12.382Z,42.10
2018-01-19T00:54:47.972Z,37.70
2018-01-19T00:55:23.387Z,40.80
2018-01-19T00:55:58.789Z,39.50
2018-01-19T00:56:33.990Z,43.40
2018-01-19T00:57:09.593Z,45.10
2018-01-19T00:57:45.012Z,43.00
2018-01-19T00:58:20.340Z,41.20
2018-01-19T00:58:55.827Z,37.20
2018-01-19T00:59:31.236Z,39.20
2018-01-19T01:00:06.615Z,41.10
2018-01-19T01:00:42.329Z,45.70
2018-01-19T01:01:17.615Z,43.30
2018-01-19T01:01:52.715Z,40.50
2018-01-19T01:02:28.324Z,44.10
2018-01-19T01:03:03.629Z,41.90
2018-01-19T01:03:39.336Z,39.60
2018-01-19T01:04:14.710Z,41.50
2018-01-19T01:04:50.027Z,36.60
2018-01-19T01:05:25.308Z,40.30
2018-01-19T01:06:00.614Z,43.90
2018-01-19T01:06:35.800Z,40.50
2018-01-19T01:07:11.244Z,40.90
2018-01-19T01:07:46.536Z,37.90
2018-01-19T01:08:21.842Z,42.10
2018-01-19T01:08:57.455Z,43.10
2018-01-19T01:09:33.032Z,39.10
2018-01-19T01:10:08.345Z,41.10
2018-01-19T01:10:43.634Z,41.00
2018-01-19T01:11:19.143Z,41.40
2018-01-19T01:11:54.328Z,37.80
2018-01-19T01:12:29.661Z,36.30
2018-01-19T01:13:05.242Z,40.60
2018-01-19T01:13:40.972Z,42.80
2018-01-19T01:14:16.277Z,38.50
2018-01-19T01:14:51.669Z,40.80
2018-01-19T01:15:27.088Z,38.60
2018-01-19T01:16:02.387Z,44.40
2018-01-19T01:16:37.694Z,43.50
2018-01-19T01:17:13.100Z,40.30
2018-01-19T01:17:48.609Z,43.80
2018-01-19T01:18:23.977Z,48.40
2018-01-19T01:18:59.382Z,45.90
2018-01-19T01:19:34.859Z,38.50
2018-01-19T01:20:10.165Z,39.50
2018-01-19T01:20:45.663Z,44.60
2018-01-19T01:21:20.937Z,46.50
2018-01-19T01:21:56.534Z,41.30
2018-01-19T01:22:31.946Z,43.90
2018-01-19T01:23:07.249Z,46.80
2018-01-19T01:23:42.732Z,42.70
2018-01-19T01:24:18.130Z,40.70
2018-01-19T01:24:53.505Z,42.10
2018-01-19T01:25:29.024Z,38.60
2018-01-19T01:26:04.536Z,40.50
2018-01-19T01:26:39.807Z,40.30
2018-01-19T01:27:15.118Z,38.10
2018-01-19T01:27:50.523Z,38.10
2018-01-19T01:28:25.930Z,43.70
2018-01-19T01:29:01.204Z,41.00
2018-01-19T01:29:36.727Z,38.50
2018-01-19T01:30:12.011Z,37.00
2018-01-19T01:30:47.321Z,37.40
2018-01-19T01:31:22.636Z,38.20
2018-01-19T01:31:57.811Z,40.70
2018-01-19T01:32:33.157Z,38.20
2018-01-19T01:33:08.528Z,40.40
2018-01-19T01:33:43.729Z,44.40
2018-01-19T01:34:19.107Z,46.60
2018-01-19T01:34:54.510Z,41.70
2018-01-19T01:35:29.884Z,42.50
2018-01-19T01:36:05.281Z,46.10
2018-01-19T01:36:40.688Z,38.30
2018-01-19T01:37:16.066Z,41.80
2018-01-19T01:37:51.819Z,47.20
2018-01-19T01:38:26.994Z,42.80
2018-01-19T01:39:02.297Z,39.00
2018-01-19T01:39:37.576Z,39.20
2018-01-19T01:40:12.989Z,40.20
2018-01-19T01:40:48.566Z,40.50
2018-01-19T01:41:23.766Z,36.60
2018-01-19T01:41:59.444Z,40.00
2018-01-19T01:42:34.846Z,39.10
2018-01-19T01:43:10.177Z,38.50
2018-01-19T01:43:45.558Z,37.60
2018-01-19T01:44:21.058Z,41.60
2018-01-19T01:44:56.426Z,44.20
2018-01-19T01:45:31.728Z,41.10
2018-01-19T01:46:07.099Z,35.60
2018-01-19T01:46:42.606Z,35.80
2018-01-19T01:47:17.785Z,43.10
2018-01-19T01:47:52.898Z,44.80
2018-01-19T01:48:28.125Z,39.20
2018-01-19T01:49:03.403Z,45.20
2018-01-19T01:49:38.502Z,45.40
2018-01-19T01:50:13.885Z,45.10
2018-01-19T01:50:49.388Z,43.00
2018-01-19T01:51:24.863Z,39.50
2018-01-19T01:52:00.271Z,41.10
2018-01-19T01:52:35.557Z,42.10
2018-01-19T01:53:10.864Z,38.60
2018-01-19T01:53:46.393Z,43.20
2018-01-19T01:54:21.581Z,44.30
2018-01-19T01:54:56.987Z,39.60
2018-01-19T01:55:32.562Z,39.80
2018-01-19T01:56:07.967Z,38.50
2018-01-19T01:56:43.642Z,39.50
2018-01-19T01:57:18.744Z,43.60
2018-01-19T01:57:54.418Z,39.70
2018-01-19T01:58:29.724Z,38.50
2018-01-19T01:59:04.958Z,45.80
2018-01-19T01:59:40.447Z,43.90
2018-01-19T02:00:15.751Z,43.70
2018-01-19T02:00:51.634Z,46.10
2018-01-19T02:01:27.249Z,43.90
2018-01-19T02:02:02.425Z,41.40
2018-01-19T02:02:37.929Z,39.90
2018-01-19T02:03:13.307Z,41.50
2018-01-19T02:03:48.613Z,42.60
2018-01-19T02:04:24.019Z,42.40
2018-01-19T02:04:59.122Z,44.60
2018-01-19T02:05:34.133Z,42.80
2018-01-19T02:06:09.322Z,43.10
2018-01-19T02:06:44.822Z,41.80
2018-01-19T02:07:20.306Z,48.90
2018-01-19T02:07:55.810Z,46.40
2018-01-19T02:08:31.187Z,38.10
2018-01-19T02:09:06.489Z,42.90
2018-01-19T02:09:41.797Z,42.30
2018-01-19T02:10:17.203Z,43.60
2018-01-19T02:10:52.614Z,43.30
2018-01-19T02:11:28.202Z,47.00
2018-01-19T02:12:03.807Z,52.80
2018-01-19T02:12:39.190Z,49.90
2018-01-19T02:13:14.492Z,47.00
2018-01-19T02:13:49.970Z,44.20
2018-01-19T02:14:25.380Z,44.90
2018-01-19T02:15:00.784Z,47.50
2018-01-19T02:15:36.192Z,44.10
2018-01-19T02:16:11.807Z,45.70
2018-01-19T02:16:47.083Z,49.30
2018-01-19T02:17:22.194Z,48.30
2018-01-19T02:17:57.665Z,46.00
2018-01-19T02:18:33.272Z,49.50
2018-01-19T02:19:08.252Z,48.80
2018-01-19T02:19:43.649Z,43.70
2018-01-19T02:20:19.157Z,48.70
2018-01-19T02:20:54.363Z,52.40
2018-01-19T02:21:29.774Z,58.00
2018-01-19T02:22:05.154Z,58.30
2018-01-19T02:22:40.755Z,46.60
2018-01-19T02:23:16.142Z,53.10
2018-01-19T02:23:54.651Z,60.10
2018-01-19T02:24:29.729Z,57.30
2018-01-19T02:25:04.830Z,50.60
2018-01-19T02:25:40.637Z,49.90
2018-01-19T02:26:16.042Z,51.80
2018-01-19T02:26:51.244Z,51.30
2018-01-19T02:27:26.712Z,53.10
2018-01-19T02:28:02.310Z,53.00
2018-01-19T02:28:37.788Z,47.70
2018-01-19T02:29:13.405Z,47.70
2018-01-19T02:29:48.878Z,56.10
2018-01-19T02:30:24.278Z,52.80
2018-01-19T02:30:59.686Z,53.00
2018-01-19T02:31:34.779Z,51.50
2018-01-19T02:32:10.171Z,49.80
2018-01-19T02:32:45.576Z,51.80
2018-01-19T02:33:20.782Z,58.20
2018-01-19T02:33:56.062Z,53.20
2018-01-19T02:34:31.365Z,52.60
2018-01-19T02:35:06.534Z,51.10
2018-01-19T02:35:42.029Z,54.20
2018-01-19T02:36:17.428Z,52.20
2018-01-19T02:36:52.925Z,54.30
2018-01-19T02:37:28.147Z,54.40
2018-01-19T02:38:03.794Z,50.20
2018-01-19T02:38:38.909Z,54.40
2018-01-19T02:39:14.184Z,51.90
2018-01-19T02:39:49.484Z,45.80
2018-01-19T02:40:24.961Z,47.80
2018-01-19T02:41:00.075Z,51.00
2018-01-19T02:41:35.400Z,49.50
2018-01-19T02:42:11.002Z,52.50
2018-01-19T02:42:46.685Z,52.70
2018-01-19T02:43:22.385Z,52.60
2018-01-19T02:43:58.594Z,57.30
2018-01-19T02:44:33.880Z,50.50
2018-01-19T02:45:09.394Z,50.00
2018-01-19T02:45:44.586Z,51.50
2018-01-19T02:46:19.994Z,54.30
2018-01-19T02:46:55.298Z,57.60
2018-01-19T02:47:30.611Z,53.70
2018-01-19T02:48:05.888Z,49.60
2018-01-19T02:48:41.292Z,52.30
2018-01-19T02:49:16.491Z,53.10
2018-01-19T02:49:51.668Z,48.50
2018-01-19T02:50:27.072Z,47.00
2018-01-19T02:51:02.458Z,55.60
2018-01-19T02:51:37.764Z,61.70
2018-01-19T02:52:12.779Z,58.10
2018-01-19T02:52:47.895Z,51.10
2018-01-19T02:53:22.889Z,48.60
2018-01-19T02:53:58.007Z,48.90
2018-01-19T02:54:33.105Z,47.40
2018-01-19T02:55:08.379Z,49.30
2018-01-19T02:55:43.683Z,53.00
2018-01-19T02:56:19.359Z,53.40
2018-01-19T02:56:54.361Z,49.00
2018-01-19T02:57:29.787Z,53.90
2018-01-19T02:58:05.100Z,52.50
2018-01-19T02:58:40.288Z,49.70
2018-01-19T02:59:15.591Z,52.30
2018-01-19T02:59:50.966Z,51.80
2018-01-19T03:00:26.271Z,53.00
2018-01-19T03:01:01.480Z,52.30
2018-01-19T03:01:36.858Z,53.90
2018-01-19T03:02:12.355Z,49.20
2018-01-19T03:02:47.760Z,47.50
2018-01-19T03:03:23.067Z,45.40
2018-01-19T03:03:58.146Z,47.50
2018-01-19T03:04:33.556Z,49.40
2018-01-19T03:05:08.730Z,49.70
2018-01-19T03:05:44.129Z,52.30
2018-01-19T03:06:19.534Z,55.70
2018-01-19T03:06:54.706Z,47.00
2018-01-19T03:07:29.905Z,46.40
2018-01-19T03:08:05.406Z,47.90
2018-01-19T03:08:40.497Z,50.30
2018-01-19T03:09:15.672Z,51.20
2018-01-19T03:09:51.170Z,52.60
2018-01-19T03:10:26.544Z,51.90
2018-01-19T03:11:02.240Z,50.80
2018-01-19T03:11:37.321Z,45.90
2018-01-19T03:12:13.113Z,53.40
2018-01-19T03:12:48.610Z,56.70
2018-01-19T03:13:24.121Z,52.70
2018-01-19T03:13:59.630Z,53.30
2018-01-19T03:14:34.905Z,55.70
2018-01-19T03:15:10.199Z,51.30
2018-01-19T03:15:45.688Z,55.40
2018-01-19T03:16:20.881Z,53.90
2018-01-19T03:16:57.259Z,49.40
2018-01-19T03:17:32.769Z,49.40
2018-01-19T03:18:08.071Z,46.80
2018-01-19T03:18:43.570Z,48.60
2018-01-19T03:19:19.084Z,47.10
2018-01-19T03:19:54.468Z,45.90
2018-01-19T03:20:29.864Z,46.10
2018-01-19T03:21:05.163Z,52.00
2018-01-19T03:21:40.660Z,50.40
2018-01-19T03:22:15.936Z,51.50
2018-01-19T03:22:51.442Z,56.20
2018-01-19T03:23:26.540Z,54.10
2018-01-19T03:24:01.845Z,52.10
2018-01-19T03:24:37.150Z,50.20
2018-01-19T03:25:12.544Z,51.00
2018-01-19T03:25:47.949Z,50.90
2018-01-19T03:26:23.522Z,50.50
2018-01-19T03:26:59.238Z,58.30
2018-01-19T03:27:34.508Z,54.60
2018-01-19T03:28:09.805Z,51.30
2018-01-19T03:28:45.008Z,51.90
2018-01-19T03:29:20.311Z,50.70
2018-01-19T03:29:55.817Z,54.20
2018-01-19T03:30:31.304Z,50.50
2018-01-19T03:31:06.721Z,51.70
2018-01-19T03:31:42.193Z,51.00
2018-01-19T03:32:17.905Z,50.30
2018-01-19T03:32:52.988Z,48.10
2018-01-19T03:33:28.393Z,53.60
2018-01-19T03:34:03.597Z,53.70
2018-01-19T03:34:38.915Z,52.80
2018-01-19T03:35:14.118Z,48.30
2018-01-19T03:35:49.294Z,45.70
2018-01-19T03:36:24.599Z,46.60
2018-01-19T03:37:00.177Z,51.70
2018-01-19T03:37:35.581Z,50.20
2018-01-19T03:38:10.762Z,46.00
2018-01-19T03:38:46.571Z,49.00
2018-01-19T03:39:21.853Z,48.90
2018-01-19T03:39:57.095Z,45.60
2018-01-19T03:40:32.532Z,43.90
2018-01-19T03:41:07.714Z,48.20
2018-01-19T03:41:43.028Z,57.70
2018-01-19T03:42:18.402Z,55.30
2018-01-19T03:42:54.013Z,45.50
2018-01-19T03:43:29.200Z,42.60
2018-01-19T03:44:05.100Z,41.80
2018-01-19T03:44:40.590Z,41.50
2018-01-19T03:45:15.935Z,44.20
2018-01-19T03:45:51.371Z,45.20
2018-01-19T03:46:26.973Z,44.80
2018-01-19T03:47:02.391Z,41.30
2018-01-19T03:47:38.398Z,42.30
2018-01-19T03:48:13.795Z,46.60
2018-01-19T03:48:48.982Z,46.50
2018-01-19T03:49:24.693Z,43.40
2018-01-19T03:50:00.086Z,41.20
2018-01-19T03:50:35.527Z,44.20
2018-01-19T03:51:10.949Z,44.50
2018-01-19T03:51:46.140Z,43.50
2018-01-19T03:52:21.445Z,42.60
2018-01-19T03:52:56.647Z,42.30
2018-01-19T03:53:32.049Z,45.60
2018-01-19T03:54:07.536Z,43.80
2018-01-19T03:54:42.750Z,43.20
2018-01-19T03:55:18.437Z,44.00
2018-01-19T03:55:53.782Z,48.50
2018-01-19T03:56:29.293Z,46.90
2018-01-19T03:57:04.878Z,46.60
2018-01-19T03:57:40.393Z,47.80
2018-01-19T03:58:16.096Z,49.20
2018-01-19T03:58:51.409Z,48.30
2018-01-19T03:59:26.599Z,46.10
2018-01-19T04:00:01.907Z,46.50
2018-01-19T04:00:38.090Z,45.00
2018-01-19T04:01:13.624Z,45.70
2018-01-19T04:01:48.919Z,44.50
2018-01-19T04:02:24.501Z,41.60
2018-01-19T04:02:59.800Z,40.70
2018-01-19T04:03:35.382Z,38.00
2018-01-19T04:04:10.502Z,37.80
2018-01-19T04:04:46.082Z,40.70
2018-01-19T04:05:21.481Z,39.90
2018-01-19T04:05:56.660Z,40.80
2018-01-19T04:06:32.084Z,37.10
2018-01-19T04:07:07.566Z,35.90
2018-01-19T04:07:42.677Z,38.90
2018-01-19T04:08:18.106Z,39.40
2018-01-19T04:08:53.480Z,37.80
2018-01-19T04:09:28.889Z,34.30
2018-01-19T04:10:04.168Z,35.70
2018-01-19T04:10:40.374Z,33.70
2018-01-19T04:11:15.446Z,32.30
2018-01-19T04:11:50.837Z,35.10
2018-01-19T04:12:25.866Z,32.80
2018-01-19T04:13:01.376Z,29.70
2018-01-19T04:13:36.456Z,29.80
2018-01-19T04:14:11.554Z,29.30
2018-01-19T04:14:46.659Z,32.30
2018-01-19T04:15:21.749Z,29.10
2018-01-19T04:15:56.962Z,28.40
2018-01-19T04:16:32.936Z,29.60
2018-01-19T04:17:08.065Z,28.80
2018-01-19T04:17:43.346Z,25.30
2018-01-19T04:18:18.651Z,24.60
2018-01-19T04:18:54.126Z,25.80
2018-01-19T04:19:29.222Z,27.80
2018-01-19T04:20:04.615Z,25.60
2018-01-19T04:20:39.802Z,24.00
2018-01-19T04:21:15.213Z,23.90
2018-01-19T04:21:50.690Z,25.10
2018-01-19T04:22:26.115Z,26.00
2018-01-19T04:23:01.091Z,26.00
2018-01-19T04:23:36.304Z,26.60
2018-01-19T04:24:11.688Z,25.80
2018-01-19T04:24:48.687Z,24.70
2018-01-19T04:25:24.178Z,22.90
2018-01-19T04:25:59.669Z,25.30
2018-01-19T04:26:34.976Z,25.90
2018-01-19T04:27:10.148Z,25.00
2018-01-19T04:27:45.884Z,23.20
2018-01-19T04:28:21.158Z,24.50
2018-01-19T04:28:56.758Z,24.60
2018-01-19T04:29:32.033Z,24.50
2018-01-19T04:30:07.639Z,22.30
2018-01-19T04:30:46.025Z,21.70
2018-01-19T04:31:21.430Z,21.30
2018-01-19T04:31:56.646Z,20.70
2018-01-19T04:32:31.917Z,19.90
2018-01-19T04:33:07.040Z,22.70
2018-01-19T04:33:42.316Z,23.90
2018-01-19T04:34:17.626Z,26.00
2018-01-19T04:34:53.003Z,24.60
2018-01-19T04:35:28.201Z,22.40
2018-01-19T04:36:03.582Z,22.60
2018-01-19T04:36:38.788Z,22.30
2018-01-19T04:37:14.292Z,21.70
2018-01-19T04:37:49.668Z,21.90
2018-01-19T04:38:25.500Z,23.90
2018-01-19T04:39:00.881Z,25.90
2018-01-19T04:39:35.877Z,25.20
2018-01-19T04:40:11.051Z,23.70
2018-01-19T04:40:46.254Z,24.10
2018-01-19T04:41:21.436Z,25.00
2018-01-19T04:41:56.525Z,25.00
2018-01-19T04:42:32.181Z,23.90
2018-01-19T04:43:07.454Z,22.20
2018-01-19T04:43:43.035Z,22.40
2018-01-19T04:44:18.360Z,23.20
2018-01-19T04:44:53.474Z,23.50
2018-01-19T04:45:28.806Z,23.40
2018-01-19T04:46:03.845Z,25.70
2018-01-19T04:46:39.230Z,25.30
2018-01-19T04:47:14.519Z,24.20
2018-01-19T04:47:49.533Z,25.20
2018-01-19T04:48:25.201Z,26.40
2018-01-19T04:49:00.643Z,26.00
2018-01-19T04:49:36.022Z,26.30
2018-01-19T04:50:11.216Z,25.90
2018-01-19T04:50:46.589Z,25.30
2018-01-19T04:51:21.700Z,23.60
2018-01-19T04:51:57.188Z,23.30
2018-01-19T04:52:32.289Z,22.40
2018-01-19T04:53:07.578Z,21.10
2018-01-19T04:53:42.875Z,22.30
2018-01-19T04:54:18.106Z,24.80
2018-01-19T04:54:53.276Z,25.80
2018-01-19T04:55:28.364Z,22.90
2018-01-19T04:56:03.526Z,23.60
2018-01-19T04:56:38.929Z,24.50
2018-01-19T04:57:14.101Z,23.60
2018-01-19T04:57:49.306Z,23.80
2018-01-19T04:58:24.684Z,24.20
2018-01-19T04:59:00.090Z,24.30
2018-01-19T04:59:35.211Z,24.30
2018-01-19T05:00:10.682Z,24.40
2018-01-19T05:00:46.077Z,25.00
2018-01-19T05:01:21.553Z,23.60
2018-01-19T05:01:56.958Z,23.00
2018-01-19T05:02:32.232Z,24.90
2018-01-19T05:03:07.538Z,25.10
2018-01-19T05:03:42.912Z,23.60
2018-01-19T05:04:18.211Z,21.90
2018-01-19T05:04:53.628Z,22.00
2018-01-19T05:05:28.909Z,23.00
2018-01-19T05:06:04.403Z,22.80
2018-01-19T05:06:39.983Z,23.90
2018-01-19T05:07:15.268Z,24.40
2018-01-19T05:07:50.657Z,24.60
2018-01-19T05:08:25.759Z,25.60
2018-01-19T05:09:00.925Z,25.10
2018-01-19T05:09:36.317Z,21.10
2018-01-19T05:10:11.526Z,22.60
2018-01-19T05:10:46.820Z,22.90
2018-01-19T05:11:22.096Z,23.90
2018-01-19T05:11:57.604Z,24.90
2018-01-19T05:12:32.778Z,24.10
2018-01-19T05:13:08.367Z,25.70
2018-01-19T05:13:43.574Z,26.70
2018-01-19T05:14:18.855Z,25.50
2018-01-19T05:14:54.249Z,23.60
2018-01-19T05:15:29.646Z,24.00
2018-01-19T05:16:04.943Z,23.40
2018-01-19T05:16:40.515Z,22.90
2018-01-19T05:17:16.007Z,23.50
2018-01-19T05:17:51.288Z,26.50
2018-01-19T05:18:26.900Z,25.40
2018-01-19T05:19:01.903Z,24.60
2018-01-19T05:19:37.277Z,24.30
2018-01-19T05:20:12.476Z,25.80
2018-01-19T05:20:47.675Z,28.40
2018-01-19T05:21:23.076Z,30.00
2018-01-19T05:21:58.450Z,25.60
2018-01-19T05:22:33.750Z,25.20
2018-01-19T05:23:09.216Z,26.60
2018-01-19T05:23:44.317Z,27.60
2018-01-19T05:24:19.584Z,27.00
2018-01-19T05:24:54.881Z,29.00
2018-01-19T05:25:29.984Z,28.30
2018-01-19T05:26:05.386Z,27.80
2018-01-19T05:26:40.680Z,28.10
2018-01-19T05:27:15.946Z,29.80
2018-01-19T05:27:54.454Z,30.50
2018-01-19T05:28:29.926Z,29.40
2018-01-19T05:29:05.536Z,29.30
2018-01-19T05:29:40.697Z,31.00
2018-01-19T05:30:15.893Z,30.60
2018-01-19T05:30:51.406Z,30.70
2018-01-19T05:31:26.603Z,33.70
2018-01-19T05:32:01.696Z,33.80
2018-01-19T05:32:37.065Z,30.90
2018-01-19T05:33:12.362Z,32.70
2018-01-19T05:33:47.332Z,35.00
2018-01-19T05:34:22.638Z,33.60
2018-01-19T05:34:57.817Z,33.10
2018-01-19T05:35:33.216Z,36.40
2018-01-19T05:36:08.921Z,37.20
2018-01-19T05:36:44.217Z,35.90
2018-01-19T05:37:19.327Z,34.00
2018-01-19T05:37:54.496Z,34.00
2018-01-19T05:38:29.995Z,34.70
2018-01-19T05:39:05.064Z,34.50
2018-01-19T05:39:40.159Z,34.70
2018-01-19T05:40:15.429Z,36.20
2018-01-19T05:40:51.721Z,31.80
2018-01-19T05:41:27.019Z,32.80
2018-01-19T05:42:02.219Z,36.20
2018-01-19T05:42:38.817Z,36.70
2018-01-19T05:43:14.089Z,37.90
2018-01-19T05:43:49.489Z,37.90
2018-01-19T05:44:25.067Z,37.50
2018-01-19T05:45:00.458Z,36.90
2018-01-19T05:45:35.832Z,36.40
2018-01-19T05:46:11.544Z,38.00
2018-01-19T05:46:47.015Z,37.30
2018-01-19T05:47:22.339Z,36.00
2018-01-19T05:47:57.642Z,36.20
2018-01-19T05:48:33.022Z,39.00
2018-01-19T05:49:08.416Z,41.40
2018-01-19T05:49:43.791Z,39.50
2018-01-19T05:50:19.181Z,37.50
2018-01-19T05:50:54.356Z,37.00
2018-01-19T05:51:29.659Z,37.00
2018-01-19T05:52:05.028Z,37.40
2018-01-19T05:52:40.464Z,36.00
2018-01-19T05:53:15.759Z,38.00
2018-01-19T05:53:51.237Z,41.70
2018-01-19T05:54:26.535Z,40.20
2018-01-19T05:55:01.615Z,37.90
2018-01-19T05:55:37.008Z,37.30
2018-01-19T05:56:12.478Z,40.40
2018-01-19T05:56:47.778Z,40.50
2018-01-19T05:57:23.246Z,38.90
2018-01-19T05:57:58.770Z,36.80
2018-01-19T05:58:33.849Z,40.30
2018-01-19T05:59:09.247Z,42.20
2018-01-19T05:59:44.654Z,39.90
2018-01-19T06:00:20.030Z,40.30
2018-01-19T06:00:55.328Z,40.30
2018-01-19T06:01:30.697Z,38.20
2018-01-19T06:02:06.298Z,40.30
2018-01-19T06:02:41.870Z,42.60
2018-01-19T06:03:17.120Z,44.40
2018-01-19T06:03:52.685Z,42.90
2018-01-19T06:04:27.989Z,44.70
2018-01-19T06:05:03.391Z,46.90
2018-01-19T06:05:38.960Z,45.30
2018-01-19T06:06:14.365Z,43.70
2018-01-19T06:06:49.736Z,43.70
2018-01-19T06:07:25.330Z,42.50
2018-01-19T06:08:00.807Z,43.30
2018-01-19T06:08:36.231Z,41.00
2018-01-19T06:09:11.702Z,44.40
2018-01-19T06:09:47.200Z,48.30
2018-01-19T06:10:22.402Z,43.00
2018-01-19T06:10:57.779Z,44.60
2018-01-19T06:11:33.187Z,49.80
2018-01-19T06:12:08.765Z,51.20
2018-01-19T06:12:44.262Z,50.60
2018-01-19T06:13:19.938Z,49.10
2018-01-19T06:13:55.360Z,48.70
2018-01-19T06:14:30.838Z,51.50
2018-01-19T06:15:06.038Z,48.80
2018-01-19T06:15:42.109Z,51.80
2018-01-19T06:16:17.510Z,52.30
2018-01-19T06:16:52.810Z,51.40
2018-01-19T06:17:27.982Z,52.30
2018-01-19T06:18:03.177Z,53.30
2018-01-19T06:18:38.451Z,52.20
2018-01-19T06:19:13.979Z,52.20
2018-01-19T06:19:49.450Z,50.70
2018-01-19T06:20:25.158Z,56.30
2018-01-19T06:21:00.528Z,53.40
2018-01-19T06:21:36.046Z,53.80
2018-01-19T06:22:11.347Z,58.10
2018-01-19T06:22:46.521Z,58.00
2018-01-19T06:23:21.813Z,57.20
2018-01-19T06:23:57.097Z,56.10
2018-01-19T06:24:32.528Z,52.40
2018-01-19T06:25:07.801Z,48.80
2018-01-19T06:25:43.302Z,49.20
2018-01-19T06:26:18.768Z,50.80
2018-01-19T06:26:54.266Z,51.50
2018-01-19T06:27:29.669Z,54.40
2018-01-19T06:28:04.653Z,51.70
2018-01-19T06:28:40.145Z,56.60
2018-01-19T06:29:15.420Z,53.00
2018-01-19T06:29:50.754Z,52.90
2018-01-19T06:30:26.029Z,54.80
2018-01-19T06:31:03.141Z,53.90
2018-01-19T06:31:38.920Z,55.00
2018-01-19T06:32:14.116Z,54.80
2018-01-19T06:32:49.531Z,53.10
2018-01-19T06:33:25.009Z,49.10
2018-01-19T06:34:00.412Z,52.30
2018-01-19T06:34:35.501Z,54.30
2018-01-19T06:35:10.849Z,52.50
2018-01-19T06:35:45.927Z,53.00
2018-01-19T06:36:21.220Z,52.60
2018-01-19T06:36:56.495Z,53.10
2018-01-19T06:37:31.589Z,53.40
2018-01-19T06:38:06.898Z,53.40
2018-01-19T06:38:42.537Z,55.30
2018-01-19T06:39:18.140Z,57.00
2018-01-19T06:39:53.813Z,56.30
2018-01-19T06:40:29.236Z,53.20
2018-01-19T06:41:04.415Z,53.10
2018-01-19T06:41:40.517Z,52.50
2018-01-19T06:42:15.890Z,53.80
2018-01-19T06:42:51.185Z,57.00
2018-01-19T06:43:26.767Z,53.50
2018-01-19T06:44:01.870Z,52.40
2018-01-19T06:44:37.174Z,53.90
2018-01-19T06:45:12.443Z,53.20
2018-01-19T06:45:48.062Z,51.90
2018-01-19T06:46:23.241Z,52.70
2018-01-19T06:46:58.836Z,52.50
2018-01-19T06:47:33.910Z,52.40
2018-01-19T06:48:09.440Z,56.80
2018-01-19T06:48:45.010Z,55.10
2018-01-19T06:49:20.416Z,57.70
2018-01-19T06:49:55.817Z,55.50
2018-01-19T06:50:31.108Z,55.10
2018-01-19T06:51:06.541Z,52.20
2018-01-19T06:51:41.718Z,51.90
2018-01-19T06:52:16.922Z,52.90
2018-01-19T06:52:52.300Z,51.50
2018-01-19T06:53:27.610Z,54.60
2018-01-19T06:54:03.179Z,53.70
2018-01-19T06:54:38.579Z,53.90
2018-01-19T06:55:13.894Z,53.80
2018-01-19T06:55:49.263Z,50.90
2018-01-19T06:56:24.693Z,52.50
2018-01-19T06:57:00.079Z,52.70
2018-01-19T06:57:35.508Z,53.30
2018-01-19T06:58:10.977Z,53.90
2018-01-19T06:58:46.285Z,49.40
2018-01-19T06:59:21.651Z,47.10
2018-01-19T06:59:57.048Z,51.30
2018-01-19T07:00:32.122Z,54.90
2018-01-19T07:01:07.634Z,51.60
2018-01-19T07:01:43.166Z,55.20
2018-01-19T07:02:18.437Z,56.90
2018-01-19T07:02:53.836Z,50.00
2018-01-19T07:03:29.357Z,48.90
2018-01-19T07:04:04.653Z,47.80
2018-01-19T07:04:39.836Z,48.10
2018-01-19T07:05:15.249Z,51.10
2018-01-19T07:05:50.713Z,48.00
2018-01-19T07:06:26.115Z,44.50
2018-01-19T07:07:01.645Z,46.40
2018-01-19T07:07:36.917Z,45.20
2018-01-19T07:08:12.339Z,45.80
2018-01-19T07:08:47.426Z,48.80
2018-01-19T07:09:22.627Z,48.90
2018-01-19T07:09:57.725Z,49.60
2018-01-19T07:10:32.915Z,47.40
2018-01-19T07:11:08.405Z,43.80
2018-01-19T07:11:43.826Z,44.80
2018-01-19T07:12:19.208Z,46.90
2018-01-19T07:12:54.710Z,45.20
2018-01-19T07:13:31.315Z,46.50
2018-01-19T07:14:06.595Z,47.60
2018-01-19T07:14:41.892Z,48.30
2018-01-19T07:15:17.063Z,45.90
2018-01-19T07:15:52.461Z,45.60
2018-01-19T07:16:27.942Z,45.00
2018-01-19T07:17:03.571Z,46.80
2018-01-19T07:17:38.958Z,46.60
2018-01-19T07:18:14.073Z,45.20
2018-01-19T07:18:49.179Z,45.90
2018-01-19T07:19:24.353Z,44.40
2018-01-19T07:19:59.852Z,43.30
2018-01-19T07:20:34.928Z,44.90
2018-01-19T07:21:10.030Z,42.70
2018-01-19T07:21:45.209Z,41.30
2018-01-19T07:22:20.743Z,47.10
2018-01-19T07:22:55.816Z,47.40
2018-01-19T07:23:31.023Z,47.20
2018-01-19T07:24:06.295Z,47.30
2018-01-19T07:24:41.690Z,49.00
2018-01-19T07:25:17.186Z,47.80
2018-01-19T07:25:52.257Z,45.40
2018-01-19T07:26:27.858Z,45.30
2018-01-19T07:27:03.041Z,48.20
2018-01-19T07:27:38.280Z,42.70
2018-01-19T07:28:13.650Z,39.20
2018-01-19T07:28:49.051Z,43.50
2018-01-19T07:29:24.322Z,44.80
2018-01-19T07:29:59.622Z,41.20
2018-01-19T07:30:34.967Z,42.90
2018-01-19T07:31:10.106Z,43.50
2018-01-19T07:31:46.111Z,39.30
2018-01-19T07:32:21.685Z,40.80
2018-01-19T07:32:57.018Z,40.90
2018-01-19T07:33:32.406Z,42.80
2018-01-19T07:34:07.801Z,45.40
2018-01-19T07:34:43.092Z,43.50
2018-01-19T07:35:18.393Z,40.70
2018-01-19T07:35:53.813Z,42.70